Time;durP1;ratioP1;P1;durP2;ratioP2;P2;SDS_P1;SDS_P2;PMS_P1;PMS_P2;Temp;Humidity;BMP_temperature;BMP_pressure;BME280_temperature;BME280_humidity;BME280_pressure;Samples;Min_cycle;Max_cycle;Signal;HPM_P1;HPM_P2
2022/03/24 00:00:42;;;;;;;;;;;;;;;21.34;37.43;95976.81;2089700;28;1178;-60
2022/03/24 00:01:44;;;;;;;;;;;;;;;21.35;37.19;95979.31;2088462;28;1527;-60
2022/03/24 00:02:46;;;;;;;;;;;;;;;21.36;37.22;95972.94;2090102;28;1023;-60
2022/03/24 00:03:47;;;;;;;;;;;;;;;21.38;37.53;95978.09;2089684;28;1489;-59
2022/03/24 00:04:49;;;;;;;;;;;;;;;21.38;37.33;95978.09;2085006;28;1281;-58
2022/03/24 00:05:51;;;;;;;;;;;;;;;21.38;37.24;95978.94;2089160;28;1487;-59
2022/03/24 00:06:52;;;;;;;;;;;;;;;21.39;37.37;95972.53;2089388;28;1538;-59
2022/03/24 00:07:55;;;;;;;;;;;;;;;21.41;37.34;95972.38;2089570;28;1536;-59
2022/03/24 00:08:56;;;;;;;;;;;;;;;21.41;37.16;95972.38;2090236;28;1985;-56
2022/03/24 00:09:58;;;;;;;;;;;;;;;21.43;37.19;95970.34;2090414;28;984;-58
2022/03/24 00:11:00;;;;;;;;;;;;;;;21.43;37.23;95965.00;2088639;28;1546;-59
2022/03/24 00:12:02;;;;;;;;;;;;;;;21.40;37.29;95971.53;2089704;28;1735;-58
2022/03/24 00:13:04;;;;;;;;;;;;;;;21.42;37.58;95963.31;2090259;28;1715;-59
2022/03/24 00:14:05;;;;;;;;;;;;;;;21.42;37.52;95963.31;2090464;28;1009;-61
2022/03/24 00:15:08;;;;;;;;;;;;;;;21.41;37.83;95967.84;2090400;28;1064;-60
2022/03/24 00:16:10;;;;;;;;;;;;;;;21.41;37.29;95959.00;2085560;28;1242;-59
2022/03/24 00:17:11;;;;;;;;;;;;;;;21.40;37.72;95960.03;2090126;28;1687;-59
2022/03/24 00:18:13;;;;;;;;;;;;;;;21.40;37.20;95955.50;2089318;28;1537;-57
2022/03/24 00:19:17;;;;;;;;;;;;;;;21.40;37.32;95950.16;2090383;28;1029;-58
2022/03/24 00:20:20;;;;;;;;;;;;;;;21.41;37.39;95948.31;2089594;28;1096;-57
2022/03/24 00:21:21;;;;;;;;;;;;;;;21.41;37.18;95954.47;2090241;28;1687;-58
2022/03/24 00:22:23;;;;;;;;;;;;;;;21.41;37.51;95948.31;2090373;28;1013;-58
2022/03/24 00:23:25;;;;;;;;;;;;;;;21.41;37.01;95945.63;2090028;28;1720;-56
2022/03/24 00:24:26;;;;;;;;;;;;;;;21.39;36.98;95940.47;2090352;28;1166;-58
2022/03/24 00:25:28;;;;;;;;;;;;;;;21.40;37.27;95939.47;2088624;28;1577;-57
2022/03/24 00:26:30;;;;;;;;;;;;;;;21.38;36.91;95936.16;2084942;28;1594;-57
2022/03/24 00:27:31;;;;;;;;;;;;;;;21.36;37.47;95935.50;2088788;28;1155;-57
2022/03/24 00:28:33;;;;;;;;;;;;;;;21.36;37.43;95929.34;2088978;28;1905;-58
2022/03/24 00:29:35;;;;;;;;;;;;;;;21.34;37.25;95934.03;2090215;28;1042;-58
2022/03/24 00:30:36;;;;;;;;;;;;;;;21.33;37.27;95935.91;2087831;28;1529;-57
2022/03/24 00:31:38;;;;;;;;;;;;;;;21.34;37.16;95940.25;2090102;28;1559;-58
2022/03/24 00:32:39;;;;;;;;;;;;;;;21.33;37.19;95935.91;2090063;28;1158;-58
2022/03/24 00:33:42;;;;;;;;;;;;;;;21.34;37.26;95939.38;2089053;28;1498;-58
2022/03/24 00:34:45;;;;;;;;;;;;;;;21.35;37.76;95941.88;2089838;28;1107;-60
2022/03/24 00:35:46;;;;;;;;;;;;;;;21.35;37.44;95935.72;2089230;28;1467;-59
2022/03/24 00:36:48;;;;;;;;;;;;;;;21.34;37.25;95928.69;2090195;28;1054;-59
2022/03/24 00:37:50;;;;;;;;;;;;;;;21.34;37.29;95928.69;2084218;28;1515;-59
2022/03/24 00:38:53;;;;;;;;;;;;;;;21.32;37.29;95923.56;2090044;28;1127;-60
2022/03/24 00:39:55;;;;;;;;;;;;;;;21.31;37.53;95929.91;2090141;28;1042;-60
2022/03/24 00:40:57;;;;;;;;;;;;;;;21.30;37.42;95928.25;2089963;28;1235;-60
2022/03/24 00:42:10;;;;;;;;;;;;;;;21.29;37.39;95926.63;2089677;28;1107;-60
2022/03/24 00:43:12;;;;;;;;;;;;;;;21.30;37.43;95930.13;2088461;28;1613;-60
2022/03/24 00:44:13;;;;;;;;;;;;;;;21.29;37.56;95929.31;2090282;28;1054;-60
2022/03/24 00:45:15;;;;;;;;;;;;;;;21.30;37.32;95930.94;2088998;28;1534;-60
2022/03/24 00:46:20;;;;;;;;;;;;;;;21.30;37.57;95922.91;2090117;28;1078;-59
2022/03/24 00:47:22;;;;;;;;;;;;;;;21.31;37.52;95929.09;2090258;28;967;-59
2022/03/24 00:48:24;;;;;;;;;;;;;;;21.30;37.52;95927.44;2087134;28;1621;-59
2022/03/24 00:49:26;;;;;;;;;;;;;;;21.30;37.55;95927.44;2085787;28;1485;-60
2022/03/24 00:50:28;;;;;;;;;;;;;;;21.30;37.61;95922.91;2089221;28;1540;-60
2022/03/24 00:51:29;;;;;;;;;;;;;;;21.29;37.67;95921.28;2089954;28;817;-60
2022/03/24 00:52:31;;;;;;;;;;;;;;;21.31;37.73;95929.09;2090064;28;1047;-60
2022/03/24 00:53:32;;;;;;;;;;;;;;;21.29;37.47;95915.94;2089900;28;1051;-59
2022/03/24 00:54:34;;;;;;;;;;;;;;;21.28;37.78;95916.13;2089937;28;1095;-60
2022/03/24 00:55:36;;;;;;;;;;;;;;;21.29;37.70;95925.81;2089881;28;1122;-60
2022/03/24 00:56:37;;;;;;;;;;;;;;;21.28;37.59;95924.13;2088567;28;1457;-58
2022/03/24 00:57:40;;;;;;;;;;;;;;;21.29;37.79;95925.81;2089925;28;1107;-59
2022/03/24 00:58:42;;;;;;;;;;;;;;;21.28;37.54;95921.47;2089800;28;993;-59
2022/03/24 00:59:43;;;;;;;;;;;;;;;21.28;37.67;95924.13;2085127;28;1150;-60
2022/03/24 01:00:45;;;;;;;;;;;;;;;21.29;37.72;95928.47;2090015;28;1244;-60
2022/03/24 01:01:47;;;;;;;;;;;;;;;21.29;37.58;95926.63;2087381;28;1637;-60
2022/03/24 01:02:51;;;;;;;;;;;;;;;21.30;37.44;95916.75;2088561;28;1449;-59
2022/03/24 01:03:53;;;;;;;;;;;;;;;21.30;37.63;95916.75;2089309;28;1099;-60
2022/03/24 01:04:55;;;;;;;;;;;;;;;21.29;37.70;95913.25;2088509;28;1621;-60
2022/03/24 01:05:57;;;;;;;;;;;;;;;21.30;37.51;95916.75;2090000;28;1072;-59
2022/03/24 01:06:59;;;;;;;;;;;;;;;21.33;38.29;95913.69;2089821;28;1107;-60
2022/03/24 01:08:01;;;;;;;;;;;;;;;21.33;37.70;95917.19;2090171;28;1072;-61
2022/03/24 01:09:03;;;;;;;;;;;;;;;21.35;37.49;95919.69;2088821;28;1906;-59
2022/03/24 01:10:05;;;;;;;;;;;;;;;21.36;37.39;95916.78;2090015;28;1062;-60
2022/03/24 01:11:07;;;;;;;;;;;;;;;21.36;37.29;95916.78;2084054;28;1539;-60
2022/03/24 01:12:09;;;;;;;;;;;;;;;21.34;37.50;95916.19;2089587;28;1680;-60
2022/03/24 01:13:11;;;;;;;;;;;;;;;21.34;37.42;95909.97;2089680;28;1426;-59
2022/03/24 01:14:16;;;;;;;;;;;;;;;21.34;37.25;95912.66;2086235;28;1180;-60
2022/03/24 01:15:19;;;;;;;;;;;;;;;21.32;37.60;95915.53;2081610;28;1038;-60
2022/03/24 01:16:23;;;;;;;;;;;;;;;21.30;37.46;95916.75;2081675;28;1016;-61
2022/03/24 01:17:26;;;;;;;;;;;;;;;21.29;37.46;95915.13;2081494;28;1158;-60
2022/03/24 01:18:29;;;;;;;;;;;;;;;21.29;37.54;95909.75;2087859;28;1455;-60
2022/03/24 01:19:31;;;;;;;;;;;;;;;21.28;37.66;95911.59;2089280;28;1047;-59
2022/03/24 01:20:32;;;;;;;;;;;;;;;21.28;37.84;95913.44;2088355;28;1563;-60
2022/03/24 01:21:36;;;;;;;;;;;;;;;21.28;37.80;95913.44;2085027;28;1040;-60
2022/03/24 01:22:38;;;;;;;;;;;;;;;21.28;37.72;95913.44;2081272;28;1682;-60
2022/03/24 01:23:39;;;;;;;;;;;;;;;21.33;37.81;95916.38;2089840;28;1019;-61
2022/03/24 01:24:41;;;;;;;;;;;;;;;21.33;37.47;95917.19;2089672;28;1120;-61
2022/03/24 01:25:42;;;;;;;;;;;;;;;21.32;37.75;95920.06;2087434;28;1531;-61
2022/03/24 01:26:45;;;;;;;;;;;;;;;21.31;37.79;95913.03;2087112;28;1398;-61
2022/03/24 01:27:47;;;;;;;;;;;;;;;21.30;37.97;95912.22;2089782;28;981;-61
2022/03/24 01:28:50;;;;;;;;;;;;;;;21.30;37.79;95912.22;2089502;28;1985;-61
2022/03/24 01:29:54;;;;;;;;;;;;;;;21.30;37.97;95912.22;2088894;28;1103;-61
2022/03/24 01:30:55;;;;;;;;;;;;;;;21.30;37.87;95908.72;2089021;28;1162;-62
2022/03/24 01:31:57;;;;;;;;;;;;;;;21.30;38.10;95903.38;2089600;28;1664;-60
2022/03/24 01:32:59;;;;;;;;;;;;;;;21.30;38.20;95906.06;2084903;28;1233;-60
2022/03/24 01:34:00;;;;;;;;;;;;;;;21.30;37.86;95906.06;2088372;28;1564;-62
2022/03/24 01:35:03;;;;;;;;;;;;;;;21.32;38.01;95909.38;2089229;28;1619;-61
2022/03/24 01:36:06;;;;;;;;;;;;;;;21.31;38.00;95903.19;2088647;28;1585;-61
2022/03/24 01:37:07;;;;;;;;;;;;;;;21.30;38.20;95903.38;2089566;28;846;-61
2022/03/24 01:38:09;;;;;;;;;;;;;;;21.29;38.28;95907.09;2089717;28;1024;-61
2022/03/24 01:39:11;;;;;;;;;;;;;;;21.33;38.60;95911.00;2088091;28;1669;-60
2022/03/24 01:40:13;;;;;;;;;;;;;;;21.35;38.33;95909.81;2089562;28;1520;-61
2022/03/24 01:41:15;;;;;;;;;;;;;;;21.34;38.44;95907.31;2089048;28;1224;-60
2022/03/24 01:42:18;;;;;;;;;;;;;;;21.33;38.23;95900.31;2089540;28;1685;-61
2022/03/24 01:43:20;;;;;;;;;;;;;;;21.33;38.44;95908.34;2087965;28;1435;-61
2022/03/24 01:44:22;;;;;;;;;;;;;;;21.33;38.50;95908.34;2083727;28;1696;-60
2022/03/24 01:45:23;;;;;;;;;;;;;;;21.31;38.45;95905.84;2080085;28;1550;-59
2022/03/24 01:46:25;;;;;;;;;;;;;;;21.31;38.56;95902.34;2088981;28;1135;-59
2022/03/24 01:47:27;;;;;;;;;;;;;;;21.32;38.67;95906.69;2089638;28;1016;-59
2022/03/24 01:48:30;;;;;;;;;;;;;;;21.34;38.98;95907.31;2088863;28;1479;-59
2022/03/24 01:49:36;;;;;;;;;;;;;;;21.33;38.61;95903.81;2087453;28;1987;-59
2022/03/24 01:50:39;;;;;;;;;;;;;;;21.32;38.84;95899.50;2089622;28;1107;-59
2022/03/24 01:51:41;;;;;;;;;;;;;;;21.32;38.62;95899.50;2089495;28;1030;-60
2022/03/24 01:52:44;;;;;;;;;;;;;;;21.32;38.75;95894.16;2089616;28;1027;-61
2022/03/24 01:53:45;;;;;;;;;;;;;;;21.32;38.67;95885.31;2089646;28;1026;-65
2022/03/24 01:54:48;;;;;;;;;;;;;;;21.31;38.87;95892.47;2084539;28;1040;-64
2022/03/24 01:55:51;;;;;;;;;;;;;;;21.32;38.71;95891.47;2087198;28;1464;-65
2022/03/24 01:56:53;;;;;;;;;;;;;;;21.33;38.92;95890.44;2089532;28;1655;-62
2022/03/24 01:57:55;;;;;;;;;;;;;;;21.32;38.92;95888.81;2088612;28;1532;-62
2022/03/24 01:58:57;;;;;;;;;;;;;;;21.34;38.81;95891.28;2081369;28;1004;-62
2022/03/24 02:00:02;;;;;;;;;;;;;;;21.34;38.90;95880.56;2080995;28;1116;-62
2022/03/24 02:01:37;;;;;;;;;;;;;;;21.34;39.04;95881.44;2081168;28;1103;-62
2022/03/24 02:02:41;;;;;;;;;;;;;;;21.35;39.12;95882.25;2072290;28;1479;-71
2022/03/24 02:03:44;;;;;;;;;;;;;;;21.36;39.10;95883.88;2085219;28;1632;-70
2022/03/24 02:04:45;;;;;;;;;;;;;;;21.37;38.92;95885.53;2089204;28;966;-61
2022/03/24 02:05:47;;;;;;;;;;;;;;;21.38;39.05;95881.84;2084570;28;1182;-69
2022/03/24 02:06:48;;;;;;;;;;;;;;;21.38;39.05;95876.50;2089214;28;1436;-70
2022/03/24 02:07:50;;;;;;;;;;;;;;;21.39;38.73;95873.63;2089537;28;1087;-69
2022/03/24 02:08:52;;;;;;;;;;;;;;;21.39;38.98;95887.00;2088674;28;1713;-66
2022/03/24 02:09:53;;;;;;;;;;;;;;;21.40;38.98;95890.50;2088493;28;1906;-68
2022/03/24 02:10:55;;;;;;;;;;;;;;;21.41;38.79;95886.81;2087360;28;1710;-68
2022/03/24 02:11:56;;;;;;;;;;;;;;;21.38;38.82;95885.34;2089373;28;1068;-69
2022/03/24 02:12:58;;;;;;;;;;;;;;;21.40;38.80;95882.50;2087790;28;1657;-68
2022/03/24 02:14:00;;;;;;;;;;;;;;;21.39;38.91;95883.50;2089456;28;1083;-68
2022/03/24 02:15:02;;;;;;;;;;;;;;;21.40;39.06;95888.66;2089161;28;1716;-68
2022/03/24 02:16:10;;;;;;;;;;;;;;;21.41;38.76;95886.81;2089229;28;1127;-67
2022/03/24 02:17:12;;;;;;;;;;;;;;;21.41;38.88;95886.81;2083214;28;1483;-66
2022/03/24 02:18:13;;;;;;;;;;;;;;;21.42;39.00;95880.44;2088225;28;977;-68
2022/03/24 02:19:21;;;;;;;;;;;;;;;21.43;38.82;95882.09;2089131;28;1367;-69
2022/03/24 02:20:24;;;;;;;;;;;;;;;21.41;39.08;95876.94;2089132;28;1135;-68
2022/03/24 02:21:26;;;;;;;;;;;;;;;21.41;38.98;95876.13;2089203;28;1099;-68
2022/03/24 02:22:28;;;;;;;;;;;;;;;21.41;38.91;95873.44;2088472;28;1466;-68
2022/03/24 02:23:30;;;;;;;;;;;;;;;21.41;38.78;95876.13;2089231;28;1194;-68
2022/03/24 02:24:31;;;;;;;;;;;;;;;21.39;38.94;95872.81;2089268;28;941;-60
2022/03/24 02:25:35;;;;;;;;;;;;;;;21.37;38.86;95880.19;2088948;28;1107;-60
2022/03/24 02:26:37;;;;;;;;;;;;;;;21.38;38.93;95877.31;2088614;28;1495;-61
2022/03/24 02:27:39;;;;;;;;;;;;;;;21.39;39.07;95873.63;2084648;28;1672;-61
2022/03/24 02:28:42;;;;;;;;;;;;;;;21.39;39.16;95872.81;2089003;28;1235;-60
2022/03/24 02:29:47;;;;;;;;;;;;;;;21.39;39.17;95876.28;2089042;28;1902;-61
2022/03/24 02:30:50;;;;;;;;;;;;;;;21.39;39.02;95880.81;2089283;28;1189;-60
2022/03/24 02:31:52;;;;;;;;;;;;;;;21.37;39.08;95881.03;2088371;28;1491;-60
2022/03/24 02:32:54;;;;;;;;;;;;;;;21.38;39.31;95876.50;2088983;28;1037;-60
2022/03/24 02:34:37;;;;;;;;;;;;;;;21.38;39.20;95879.19;2088176;28;1479;-60
2022/03/24 02:35:17;;;;;;;;;;;;;;;21.39;39.13;95878.16;2088889;28;1714;-60
2022/03/24 02:36:19;;;;;;;;;;;;;;;21.38;39.23;95876.50;2087124;28;1456;-60
2022/03/24 02:37:22;;;;;;;;;;;;;;;21.38;39.12;95876.50;2088153;28;1519;-59
2022/03/24 02:38:24;;;;;;;;;;;;;;;21.36;39.37;95874.00;2084195;28;1506;-60
2022/03/24 02:39:26;;;;;;;;;;;;;;;21.37;39.25;95874.84;2087480;28;1513;-60
2022/03/24 02:40:28;;;;;;;;;;;;;;;21.36;39.32;95875.88;2088533;28;1388;-60
2022/03/24 02:41:31;;;;;;;;;;;;;;;21.36;39.20;95874.00;2086987;28;1590;-60
2022/03/24 02:42:32;;;;;;;;;;;;;;;21.36;39.29;95870.53;2089318;28;1001;-60
2022/03/24 02:43:34;;;;;;;;;;;;;;;21.37;39.47;95875.69;2089100;28;1087;-61
2022/03/24 02:44:36;;;;;;;;;;;;;;;21.39;39.47;95880.81;2089415;28;1012;-61
2022/03/24 02:45:37;;;;;;;;;;;;;;;21.38;39.43;95871.97;2088979;28;1179;-60
2022/03/24 02:46:39;;;;;;;;;;;;;;;21.39;39.23;95870.13;2089154;28;1120;-60
2022/03/24 02:47:41;;;;;;;;;;;;;;;21.39;39.43;95872.81;2088852;28;1138;-60
2022/03/24 02:48:42;;;;;;;;;;;;;;;21.38;39.16;95882.69;2088831;28;1683;-60
2022/03/24 02:49:45;;;;;;;;;;;;;;;21.37;39.27;95881.03;2082740;28;1899;-61
2022/03/24 02:50:48;;;;;;;;;;;;;;;21.37;39.17;95874.84;2089279;28;1019;-61
2022/03/24 02:51:50;;;;;;;;;;;;;;;21.38;39.35;95868.50;2089143;28;1131;-60
2022/03/24 02:52:52;;;;;;;;;;;;;;;21.39;39.19;95872.81;2087462;28;1410;-60
2022/03/24 02:53:53;;;;;;;;;;;;;;;21.39;39.36;95867.44;2088452;28;1183;-60
2022/03/24 02:54:55;;;;;;;;;;;;;;;21.42;39.22;95873.22;2087196;28;1608;-60
2022/03/24 02:55:57;;;;;;;;;;;;;;;21.42;39.15;95867.06;2088036;28;1714;-60
2022/03/24 02:56:58;;;;;;;;;;;;;;;21.44;39.07;95873.03;2089394;28;956;-60
2022/03/24 02:58:00;;;;;;;;;;;;;;;21.44;39.17;95867.69;2089193;28;1102;-60
2022/03/24 02:59:02;;;;;;;;;;;;;;;21.44;39.11;95865.03;2089180;28;977;-60
2022/03/24 03:00:05;;;;;;;;;;;;;;;21.43;39.11;95866.88;2087463;28;1622;-60
2022/03/24 03:01:06;;;;;;;;;;;;;;;21.44;39.02;95865.03;2084858;28;1737;-60
2022/03/24 03:02:11;;;;;;;;;;;;;;;21.45;39.05;95872.00;2088548;28;1741;-61
2022/03/24 03:03:13;;;;;;;;;;;;;;;21.44;38.96;95865.03;2088409;28;1043;-60
2022/03/24 03:04:15;;;;;;;;;;;;;;;21.44;38.92;95865.03;2088626;28;1668;-60
2022/03/24 03:05:16;;;;;;;;;;;;;;;21.43;39.15;95868.72;2088985;28;1743;-61
2022/03/24 03:06:19;;;;;;;;;;;;;;;21.43;39.02;95869.56;2089215;28;1056;-59
2022/03/24 03:07:20;;;;;;;;;;;;;;;21.44;39.07;95870.38;2090000;28;1077;-61
2022/03/24 03:08:22;;;;;;;;;;;;;;;21.42;39.14;95870.56;2090104;28;1108;-61
2022/03/24 03:09:24;;;;;;;;;;;;;;;21.42;38.92;95867.06;2089766;28;1673;-60
2022/03/24 03:10:25;;;;;;;;;;;;;;;21.40;39.10;95869.94;2090106;28;1907;-60
2022/03/24 03:11:27;;;;;;;;;;;;;;;21.41;39.16;95870.78;2086085;28;1116;-60
2022/03/24 03:12:29;;;;;;;;;;;;;;;21.42;38.92;95872.41;2090635;28;1375;-60
2022/03/24 03:13:31;;;;;;;;;;;;;;;21.42;38.83;95867.06;2090692;28;984;-60
2022/03/24 03:14:33;;;;;;;;;;;;;;;21.42;39.13;95867.06;2088499;28;1556;-60
2022/03/24 03:15:35;;;;;;;;;;;;;;;21.43;38.90;95866.88;2089664;28;1542;-60
2022/03/24 03:16:37;;;;;;;;;;;;;;;21.42;38.95;95867.88;2089084;28;1490;-60
2022/03/24 03:17:38;;;;;;;;;;;;;;;21.43;39.22;95874.06;2090362;28;1025;-59
2022/03/24 03:18:44;;;;;;;;;;;;;;;21.42;39.04;95873.22;2090518;28;1158;-59
2022/03/24 03:19:46;;;;;;;;;;;;;;;21.42;38.93;95880.44;2090589;28;1182;-60
2022/03/24 03:20:48;;;;;;;;;;;;;;;21.41;39.16;95876.94;2088385;28;1576;-60
2022/03/24 03:21:50;;;;;;;;;;;;;;;21.43;38.91;95877.56;2090170;28;1035;-59
2022/03/24 03:22:51;;;;;;;;;;;;;;;21.41;38.89;95874.25;2085854;28;1009;-60
2022/03/24 03:23:53;;;;;;;;;;;;;;;21.42;38.83;95877.75;2081856;28;1226;-60
2022/03/24 03:24:55;;;;;;;;;;;;;;;21.43;38.86;95874.06;2084526;28;1658;-60
2022/03/24 03:25:57;;;;;;;;;;;;;;;21.43;39.02;95874.91;2090720;28;1072;-61
2022/03/24 03:26:58;;;;;;;;;;;;;;;21.45;38.91;95875.53;2090545;28;1147;-61
2022/03/24 03:28:00;;;;;;;;;;;;;;;21.45;38.92;95866.66;2089265;28;1517;-60
2022/03/24 03:29:02;;;;;;;;;;;;;;;21.47;38.88;95871.84;2089995;28;1028;-60
2022/03/24 03:30:05;;;;;;;;;;;;;;;21.47;38.88;95872.66;2090668;28;1930;-64
2022/03/24 03:31:06;;;;;;;;;;;;;;;21.49;38.67;95878.63;2089093;28;1497;-60
2022/03/24 03:32:09;;;;;;;;;;;;;;;21.51;38.89;95868.53;2090102;28;999;-60
2022/03/24 03:33:10;;;;;;;;;;;;;;;21.48;38.92;95874.28;2086964;28;1099;-60
2022/03/24 03:34:12;;;;;;;;;;;;;;;21.46;38.89;95868.34;2089617;28;1323;-60
2022/03/24 03:35:14;;;;;;;;;;;;;;;21.42;38.83;95875.09;2090384;28;1183;-61
2022/03/24 03:36:15;;;;;;;;;;;;;;;21.41;39.02;95876.13;2088633;28;1487;-61
2022/03/24 03:37:17;;;;;;;;;;;;;;;21.39;38.87;95873.63;2090394;28;1033;-60
2022/03/24 03:38:19;;;;;;;;;;;;;;;21.39;39.02;95878.16;2090612;28;1087;-59
2022/03/24 03:39:21;;;;;;;;;;;;;;;21.40;39.09;95869.94;2089953;28;1548;-59
2022/03/24 03:40:22;;;;;;;;;;;;;;;21.39;39.09;95875.47;2088420;28;1524;-60
2022/03/24 03:41:24;;;;;;;;;;;;;;;21.37;39.06;95870.34;2089523;28;1516;-59
2022/03/24 03:42:26;;;;;;;;;;;;;;;21.37;39.03;95869.50;2090638;28;1062;-59
2022/03/24 03:43:32;;;;;;;;;;;;;;;21.38;39.11;95876.50;2090411;28;1103;-59
2022/03/24 03:44:34;;;;;;;;;;;;;;;21.37;38.95;95880.19;2085826;28;1243;-60
2022/03/24 03:45:36;;;;;;;;;;;;;;;21.36;39.02;95873.19;2090333;28;1111;-60
2022/03/24 03:46:38;;;;;;;;;;;;;;;21.36;39.15;95870.53;2090148;28;1091;-59
2022/03/24 03:47:39;;;;;;;;;;;;;;;21.38;39.02;95868.50;2090453;28;1092;-59
2022/03/24 03:48:41;;;;;;;;;;;;;;;21.36;39.03;95871.34;2090232;28;1116;-60
2022/03/24 03:49:43;;;;;;;;;;;;;;;21.37;39.27;95874.84;2089412;28;1497;-59
2022/03/24 03:50:59;;;;;;;;;;;;;;;21.35;39.15;95883.06;2090221;28;1973;-59
2022/03/24 03:52:00;;;;;;;;;;;;;;;21.36;39.10;95873.19;2090535;28;1112;-59
2022/03/24 03:53:02;;;;;;;;;;;;;;;21.34;39.32;95870.72;2090071;28;1670;-62
2022/03/24 03:54:05;;;;;;;;;;;;;;;21.36;39.10;95867.84;2090272;28;1775;-60
2022/03/24 03:55:07;;;;;;;;;;;;;;;21.37;38.91;95870.34;2087848;28;1380;-59
2022/03/24 03:56:08;;;;;;;;;;;;;;;21.38;38.95;95876.50;2086406;28;1446;-60
2022/03/24 03:57:10;;;;;;;;;;;;;;;21.38;39.21;95871.97;2084721;28;1322;-59
2022/03/24 03:58:12;;;;;;;;;;;;;;;21.38;38.97;95866.63;2082331;28;998;-59
2022/03/24 03:59:14;;;;;;;;;;;;;;;21.37;39.04;95872.16;2081904;28;1528;-59
2022/03/24 04:01:01;;;;;;;;;;;;;;;21.38;39.24;95876.50;2088800;28;1454;-59
2022/03/24 04:01:37;;;;;;;;;;;;;;;21.39;39.23;95878.97;2085308;28;1196;-57
2022/03/24 04:02:39;;;;;;;;;;;;;;;20.44;24.15;95874.88;2089054;28;1487;-61
2022/03/24 04:03:42;;;;;;;;;;;;;;;17.85;23.94;95874.28;2081748;28;1104;-58
2022/03/24 04:04:44;;;;;;;;;;;;;;;15.97;24.20;95874.41;2084021;28;1025;-58
2022/03/24 04:05:46;;;;;;;;;;;;;;;15.14;24.93;95877.66;2098291;28;1009;-57
2022/03/24 04:06:48;;;;;;;;;;;;;;;14.47;25.22;95873.81;2084864;28;1571;-58
2022/03/24 04:07:49;;;;;;;;;;;;;;;13.86;25.98;95880.69;2089922;28;1669;-57
2022/03/24 04:08:51;;;;;;;;;;;;;;;13.21;26.42;95880.66;2089997;28;1111;-57
2022/03/24 04:09:53;;;;;;;;;;;;;;;13.00;26.53;95877.38;2088594;28;1528;-58
2022/03/24 04:10:55;;;;;;;;;;;;;;;12.81;26.41;95871.19;2090322;28;1906;-58
2022/03/24 04:11:56;;;;;;;;;;;;;;;12.38;27.10;95876.94;2089143;28;1683;-58
2022/03/24 04:12:58;;;;;;;;;;;;;;;12.57;26.87;95879.53;2089717;28;1008;-56
2022/03/24 04:14:00;;;;;;;;;;;;;;;12.27;27.41;95878.72;2090266;28;1072;-57
2022/03/24 04:15:01;;;;;;;;;;;;;;;11.92;27.18;95881.88;2090313;28;1088;-57
2022/03/24 04:16:03;;;;;;;;;;;;;;;12.07;27.86;95874.41;2090410;28;1038;-58
2022/03/24 04:17:05;;;;;;;;;;;;;;;11.87;27.30;95883.25;2089917;28;1096;-58
2022/03/24 04:18:07;;;;;;;;;;;;;;;11.88;27.58;95885.72;2085131;28;1186;-57
2022/03/24 04:19:09;;;;;;;;;;;;;;;11.69;27.03;95880.41;2088918;28;1628;-56
2022/03/24 04:20:12;;;;;;;;;;;;;;;11.55;27.54;95884.25;2090253;28;1703;-58
2022/03/24 04:21:13;;;;;;;;;;;;;;;11.55;27.19;95884.25;2089840;28;1650;-55
2022/03/24 04:22:16;;;;;;;;;;;;;;;11.36;27.54;95887.66;2090229;28;1017;-56
2022/03/24 04:23:18;;;;;;;;;;;;;;;10.90;28.14;95881.91;2085200;28;1206;-55
2022/03/24 04:24:20;;;;;;;;;;;;;;;10.92;28.51;95882.63;2089044;28;1348;-56
2022/03/24 04:25:22;;;;;;;;;;;;;;;10.80;28.79;95891.50;2090075;28;1158;-55
2022/03/24 04:26:24;;;;;;;;;;;;;;;10.86;28.43;95885.75;2089263;28;1506;-56
2022/03/24 04:27:26;;;;;;;;;;;;;;;10.88;28.01;95883.84;2089989;28;1724;-56
2022/03/24 04:28:27;;;;;;;;;;;;;;;10.58;28.49;95878.50;2085754;28;1042;-58
2022/03/24 04:29:29;;;;;;;;;;;;;;;10.49;28.43;95886.16;2089205;28;1466;-55
2022/03/24 04:30:31;;;;;;;;;;;;;;;10.32;28.80;95880.66;2089677;28;1656;-55
2022/03/24 04:31:33;;;;;;;;;;;;;;;10.29;29.20;95883.53;2089841;28;1910;-55
2022/03/24 04:32:34;;;;;;;;;;;;;;;10.43;28.81;95884.06;2089882;28;1173;-55
2022/03/24 04:33:37;;;;;;;;;;;;;;;10.73;28.01;95885.09;2090134;28;1166;-56
2022/03/24 04:34:38;;;;;;;;;;;;;;;10.35;28.18;95878.59;2090365;28;1004;-56
2022/03/24 04:35:40;;;;;;;;;;;;;;;10.31;28.25;95882.44;2090226;28;1016;-57
2022/03/24 04:36:41;;;;;;;;;;;;;;;10.14;28.37;95883.00;2089661;28;1620;-54
2022/03/24 04:37:43;;;;;;;;;;;;;;;9.86;28.89;95889.66;2089344;28;952;-56
2022/03/24 04:38:45;;;;;;;;;;;;;;;9.70;29.40;95887.41;2087586;28;1513;-57
2022/03/24 04:39:46;;;;;;;;;;;;;;;9.59;29.28;95883.03;2085135;28;1718;-55
2022/03/24 04:40:48;;;;;;;;;;;;;;;9.48;29.57;95883.06;2087748;28;1729;-57
2022/03/24 04:41:49;;;;;;;;;;;;;;;9.49;29.36;95888.16;2088607;28;1614;-57
2022/03/24 04:42:52;;;;;;;;;;;;;;;9.93;29.65;95883.78;2089435;28;1088;-55
2022/03/24 04:43:55;;;;;;;;;;;;;;;10.88;30.77;95891.72;2089493;28;1440;-54
2022/03/24 04:44:57;;;;;;;;;;;;;;;11.91;28.24;95884.63;2090132;28;1113;-58
2022/03/24 04:45:58;;;;;;;;;;;;;;;11.94;27.26;95894.88;2089032;28;1500;-57
2022/03/24 04:47:00;;;;;;;;;;;;;;;11.60;27.69;95882.88;2089672;28;1652;-56
2022/03/24 04:48:02;;;;;;;;;;;;;;;11.98;28.69;95885.75;2089759;28;1687;-52
2022/03/24 04:49:03;;;;;;;;;;;;;;;12.73;28.55;95881.63;2089715;28;1448;-54
2022/03/24 04:50:05;;;;;;;;;;;;;;;13.55;27.92;95882.78;2087313;28;1700;-57
2022/03/24 04:51:07;;;;;;;;;;;;;;;14.28;27.58;95877.44;2080638;28;1977;-56
2022/03/24 04:52:08;;;;;;;;;;;;;;;14.85;27.29;95877.97;2086417;28;1004;-57
2022/03/24 04:53:15;;;;;;;;;;;;;;;15.30;26.77;95886.69;2088416;28;1458;-57
2022/03/24 04:54:17;;;;;;;;;;;;;;;15.69;26.44;95888.88;2081682;28;1103;-54
2022/03/24 04:55:19;;;;;;;;;;;;;;;15.94;26.22;95885.34;2081570;28;1521;-52
2022/03/24 04:56:20;;;;;;;;;;;;;;;16.17;26.35;95888.22;2088346;28;1550;-53
2022/03/24 04:57:22;;;;;;;;;;;;;;;16.35;26.11;95884.59;2069541;28;11207;-53
2022/03/24 04:58:23;;;;;;;;;;;;;;;16.49;26.25;95890.06;2105572;28;1131;-56
2022/03/24 04:59:25;;;;;;;;;;;;;;;16.63;26.27;95896.56;2104419;28;2539;-54
2022/03/24 05:00:27;;;;;;;;;;;;;;;16.76;26.26;95888.13;2104571;28;1849;-55
2022/03/24 05:01:29;;;;;;;;;;;;;;;16.81;26.77;95892.94;2097801;28;1480;-54
2022/03/24 05:02:31;;;;;;;;;;;;;;;17.11;26.79;95889.59;2096351;28;1686;-59
2022/03/24 05:03:33;;;;;;;;;;;;;;;17.28;26.67;95889.56;2098121;28;1772;-53
2022/03/24 05:04:35;;;;;;;;;;;;;;;17.43;26.57;95890.53;2105090;28;1775;-54
2022/03/24 05:05:37;;;;;;;;;;;;;;;17.52;26.46;95888.66;2105783;28;1103;-55
2022/03/24 05:06:38;;;;;;;;;;;;;;;17.56;27.23;95893.50;2106417;28;1010;-56
2022/03/24 05:07:41;;;;;;;;;;;;;;;17.64;27.50;95901.44;2103758;28;1474;-56
2022/03/24 05:08:42;;;;;;;;;;;;;;;16.50;24.09;95888.25;2105333;28;1665;-52
2022/03/24 05:09:45;;;;;;;;;;;;;;;15.77;27.18;95889.75;2097621;28;1038;-55
2022/03/24 05:10:47;;;;;;;;;;;;;;;15.58;28.17;95896.09;2102256;28;1359;-55
2022/03/24 05:11:48;;;;;;;;;;;;;;;15.86;28.07;95891.44;2104840;28;1979;-57
2022/03/24 05:12:50;;;;;;;;;;;;;;;16.25;28.81;95888.22;2097023;28;1592;-58
2022/03/24 05:13:51;;;;;;;;;;;;;;;16.60;28.46;95893.41;2105430;28;1605;-58
2022/03/24 05:14:53;;;;;;;;;;;;;;;16.89;28.10;95891.09;2104820;28;1654;-57
2022/03/24 05:15:56;;;;;;;;;;;;;;;17.11;27.82;95894.91;2105562;28;1103;-58
2022/03/24 05:16:58;;;;;;;;;;;;;;;17.29;27.44;95891.22;2103213;28;1882;-56
2022/03/24 05:18:00;;;;;;;;;;;;;;;17.42;27.54;95896.84;2100196;28;1107;-58
2022/03/24 05:19:05;;;;;;;;;;;;;;;17.53;27.53;95899.16;2102985;28;1491;-56
2022/03/24 05:20:07;;;;;;;;;;;;;;;17.61;27.76;95891.16;2104868;28;1017;-56
2022/03/24 05:21:09;;;;;;;;;;;;;;;17.70;27.70;95891.09;2104022;28;1448;-55
2022/03/24 05:22:11;;;;;;;;;;;;;;;17.76;27.72;95887.81;2100365;28;1614;-58
2022/03/24 05:23:12;;;;;;;;;;;;;;;17.85;27.67;95881.44;2100784;28;1014;-55
2022/03/24 05:24:14;;;;;;;;;;;;;;;17.98;27.64;95884.38;2103546;28;1732;-55
2022/03/24 05:25:16;;;;;;;;;;;;;;;18.08;27.89;95886.81;2105512;28;1687;-56
2022/03/24 05:26:20;;;;;;;;;;;;;;;18.11;27.85;95873.16;2104572;28;1531;-57
2022/03/24 05:27:22;;;;;;;;;;;;;;;18.15;27.83;95881.59;2106025;28;1047;-55
2022/03/24 05:28:24;;;;;;;;;;;;;;;18.17;27.97;95882.28;2104603;28;1466;-55
2022/03/24 05:29:26;;;;;;;;;;;;;;;18.18;27.96;95882.13;2103233;28;1495;-56